Time;durP1;ratioP1;P1;durP2;ratioP2;P2;SDS_P1;SDS_P2;PMS_P1;PMS_P2;Temp;Humidity;BMP_temperature;BMP_pressure;BME280_temperature;BME280_humidity;BME280_pressure;Samples;Min_cycle;Max_cycle;Signal;HPM_P1;HPM_P2
2023/07/13 00:02:22;;;;;;;41.15;24.52;;;;;;;;;;8410786;28;20090;-94
2023/07/13 00:06:25;;;;;;;42.08;24.52;;;;;;;;;;8408754;28;20044;-94
2023/07/13 00:10:28;;;;;;;36.15;23.30;;;;;;;;;;8417904;28;20049;-83
2023/07/13 00:14:31;;;;;;;41.20;24.70;;;;;;;;;;8415018;28;20120;-82
2023/07/13 00:18:35;;;;;;;36.70;23.02;;;;;;;;;;8419959;28;20052;-87
2023/07/13 00:22:38;;;;;;;33.85;22.92;;;;;;;;;;8423209;28;20391;-94
2023/07/13 00:26:44;;;;;;;42.42;23.48;;;;;;;;;;8416695;28;20049;-95
2023/07/13 00:30:47;;;;;;;43.88;26.17;;;;;;;;;;8414894;28;20055;-89
2023/07/13 00:34:51;;;;;;;45.83;26.63;;;;;;;;;;8426070;28;20127;-95
2023/07/13 00:38:54;;;;;;;37.90;21.63;;;;;;;;;;8406395;28;20044;-95
2023/07/13 00:42:59;;;;;;;34.05;22.02;;;;;;;;;;8432345;28;20127;-94
2023/07/13 00:47:02;;;;;;;37.35;24.20;;;;;;;;;;8435676;28;20052;-88
2023/07/13 00:51:07;;;;;;;37.85;23.63;;;;;;;;;;8435821;28;20048;-83
2023/07/13 00:55:12;;;;;;;40.40;24.67;;;;;;;;;;8435440;28;20044;-94
2023/07/13 00:59:18;;;;;;;35.60;21.58;;;;;;;;;;8435357;28;20122;-82
2023/07/13 01:03:21;;;;;;;38.22;24.38;;;;;;;;;;8435460;28;20070;-94
2023/07/13 01:07:26;;;;;;;36.50;22.38;;;;;;;;;;8435275;28;20559;-85
2023/07/13 01:11:29;;;;;;;31.70;21.10;;;;;;;;;;8422673;28;20072;-93
2023/07/13 01:15:37;;;;;;;33.20;22.52;;;;;;;;;;8421126;28;20080;-94
2023/07/13 01:19:44;;;;;;;34.47;22.40;;;;;;;;;;8435410;28;20522;-91
2023/07/13 01:23:49;;;;;;;34.35;22.20;;;;;;;;;;8434699;28;20126;-92
2023/07/13 01:27:52;;;;;;;29.20;21.52;;;;;;;;;;8434988;28;20050;-94
2023/07/13 01:31:54;;;;;;;27.63;20.30;;;;;;;;;;8417147;28;20051;-84
2023/07/13 01:35:58;;;;;;;31.90;21.63;;;;;;;;;;8413545;28;20041;-84
2023/07/13 01:40:02;;;;;;;28.20;19.67;;;;;;;;;;8430150;28;20127;-85
2023/07/13 01:44:06;;;;;;;30.60;20.42;;;;;;;;;;8429716;28;20067;-83
2023/07/13 01:48:08;;;;;;;32.72;19.17;;;;;;;;;;8403055;28;20046;-84
2023/07/13 01:52:11;;;;;;;28.58;18.98;;;;;;;;;;8401082;28;20046;-83
2023/07/13 01:56:16;;;;;;;25.33;18.17;;;;;;;;;;8426613;28;20040;-92
2023/07/13 02:00:19;;;;;;;43.05;24.85;;;;;;;;;;8433600;28;20131;-86
2023/07/13 02:04:22;;;;;;;35.65;22.45;;;;;;;;;;8433602;28;20043;-94
2023/07/13 02:08:25;;;;;;;26.27;19.15;;;;;;;;;;8433468;28;20056;-94
2023/07/13 02:12:29;;;;;;;53.40;29.83;;;;;;;;;;8433097;28;20044;-95
2023/07/13 02:16:32;;;;;;;26.08;18.98;;;;;;;;;;8431553;28;20093;-85
2023/07/13 02:20:35;;;;;;;29.10;19.10;;;;;;;;;;8426216;28;20040;-84
2023/07/13 02:24:39;;;;;;;26.10;17.88;;;;;;;;;;8433077;28;20044;-87
2023/07/13 02:28:44;;;;;;;26.27;19.88;;;;;;;;;;8432717;28;20036;-94
2023/07/13 02:32:47;;;;;;;27.40;19.60;;;;;;;;;;8432652;28;20105;-92
2023/07/13 02:36:50;;;;;;;60.03;29.63;;;;;;;;;;8426560;28;20048;-89
2023/07/13 02:40:53;;;;;;;67.95;31.85;;;;;;;;;;8425374;28;20430;-92
2023/07/13 02:44:58;;;;;;;23.23;16.80;;;;;;;;;;8427142;28;20490;-89
2023/07/13 02:49:01;;;;;;;38.55;24.27;;;;;;;;;;8432805;28;20066;-94
2023/07/13 02:53:04;;;;;;;32.47;22.05;;;;;;;;;;8431915;28;20055;-87
2023/07/13 02:57:07;;;;;;;28.58;20.40;;;;;;;;;;8432113;28;20126;-93
2023/07/13 03:01:18;;;;;;;26.40;17.38;;;;;;;;;;8432077;28;20407;-95
2023/07/13 03:05:21;;;;;;;26.80;19.10;;;;;;;;;;8431846;28;20044;-83
2023/07/13 03:09:24;;;;;;;26.80;18.75;;;;;;;;;;8431465;28;20052;-94
2023/07/13 03:13:27;;;;;;;28.88;19.33;;;;;;;;;;8431470;28;20076;-84
2023/07/13 03:17:31;;;;;;;26.50;18.10;;;;;;;;;;8431594;28;20491;-94
2023/07/13 03:21:34;;;;;;;22.35;16.00;;;;;;;;;;8431413;28;20127;-93
2023/07/13 03:25:37;;;;;;;19.58;14.20;;;;;;;;;;8431293;28;20043;-93
2023/07/13 03:29:40;;;;;;;41.13;21.27;;;;;;;;;;8431036;28;20119;-92
2023/07/13 03:33:44;;;;;;;21.77;14.95;;;;;;;;;;8431272;28;20472;-92
2023/07/13 03:37:47;;;;;;;27.80;18.02;;;;;;;;;;8430942;28;20083;-93
2023/07/13 03:41:50;;;;;;;19.35;15.02;;;;;;;;;;8427520;28;20039;-92
2023/07/13 03:45:53;;;;;;;22.52;16.92;;;;;;;;;;8429647;28;20052;-82
2023/07/13 03:49:57;;;;;;;18.77;14.75;;;;;;;;;;8430291;28;20052;-85
2023/07/13 03:54:00;;;;;;;24.30;19.90;;;;;;;;;;8430225;28;20126;-94
2023/07/13 03:58:26;;;;;;;22.58;15.20;;;;;;;;;;8429773;28;20093;-83
2023/07/13 04:02:29;;;;;;;19.95;15.65;;;;;;;;;;8430414;28;20078;-87
2023/07/13 04:06:34;;;;;;;39.95;30.33;;;;;;;;;;8430176;28;20047;-90
2023/07/13 04:10:37;;;;;;;20.58;15.02;;;;;;;;;;8429850;28;20127;-89
2023/07/13 04:14:39;;;;;;;64.90;26.13;;;;;;;;;;8416534;28;20503;-84
2023/07/13 04:18:42;;;;;;;37.95;24.25;;;;;;;;;;8429923;28;20117;-93
2023/07/13 04:22:46;;;;;;;19.10;13.45;;;;;;;;;;8426334;28;20712;-90
2023/07/13 04:26:49;;;;;;;15.90;12.13;;;;;;;;;;8420244;28;20449;-94
2023/07/13 04:30:53;;;;;;;18.85;14.18;;;;;;;;;;8429468;28;20044;-92
2023/07/13 04:34:57;;;;;;;27.20;17.77;;;;;;;;;;8429572;28;20048;-88
2023/07/13 04:39:01;;;;;;;25.55;21.38;;;;;;;;;;8429787;28;20051;-82
2023/07/13 04:43:04;;;;;;;38.00;23.27;;;;;;;;;;8420471;28;20181;-90
2023/07/13 04:47:07;;;;;;;26.23;21.02;;;;;;;;;;8416099;28;20123;-82
2023/07/13 04:51:10;;;;;;;27.25;21.55;;;;;;;;;;8429827;28;20464;-93
2023/07/13 04:55:14;;;;;;;24.00;16.77;;;;;;;;;;8429208;28;20044;-90
2023/07/13 04:59:17;;;;;;;19.45;14.60;;;;;;;;;;8429511;28;20048;-83
2023/07/13 05:03:20;;;;;;;26.33;18.67;;;;;;;;;;8429249;28;20064;-94
2023/07/13 05:07:23;;;;;;;22.88;18.65;;;;;;;;;;8430675;28;20472;-94
2023/07/13 05:11:27;;;;;;;23.67;15.40;;;;;;;;;;8422411;28;20589;-84
2023/07/13 05:15:30;;;;;;;27.48;17.80;;;;;;;;;;8430965;28;20058;-90
2023/07/13 05:19:33;;;;;;;29.88;20.65;;;;;;;;;;8423110;28;20069;-93
2023/07/13 05:23:37;;;;;;;22.33;17.13;;;;;;;;;;8434943;28;20071;-91
2023/07/13 05:27:41;;;;;;;22.00;17.27;;;;;;;;;;8421658;28;20055;-87
2023/07/13 05:31:44;;;;;;;22.42;17.30;;;;;;;;;;8424235;28;20606;-89
2023/07/13 05:35:47;;;;;;;21.35;15.60;;;;;;;;;;8422496;28;20063;-92
2023/07/13 05:39:50;;;;;;;19.40;16.20;;;;;;;;;;8433643;28;20036;-94
2023/07/13 05:43:54;;;;;;;24.73;21.42;;;;;;;;;;8433773;28;20044;-85
2023/07/13 05:47:57;;;;;;;20.90;17.67;;;;;;;;;;8428291;28;20044;-86
2023/07/13 05:52:00;;;;;;;17.52;14.18;;;;;;;;;;8419733;28;20484;-83
2023/07/13 05:56:03;;;;;;;19.55;15.10;;;;;;;;;;8433583;28;20184;-92
2023/07/13 06:00:09;;;;;;;15.93;14.23;;;;;;;;;;8433407;28;20051;-86
2023/07/13 06:04:12;;;;;;;16.52;13.98;;;;;;;;;;8433780;28;20373;-91
2023/07/13 06:08:14;;;;;;;19.33;15.45;;;;;;;;;;8430507;28;20120;-92
2023/07/13 06:12:17;;;;;;;21.45;16.73;;;;;;;;;;8407066;28;20082;-88
2023/07/13 06:16:22;;;;;;;20.55;15.20;;;;;;;;;;8407205;28;20048;-84
2023/07/13 06:20:26;;;;;;;19.75;14.65;;;;;;;;;;8413926;28;20044;-84
2023/07/13 06:24:30;;;;;;;27.27;15.82;;;;;;;;;;8418013;28;20040;-83
2023/07/13 06:28:33;;;;;;;29.02;17.15;;;;;;;;;;8410545;28;20088;-84
2023/07/13 06:32:37;;;;;;;29.67;18.35;;;;;;;;;;8413180;28;20097;-90
2023/07/13 06:36:40;;;;;;;22.25;16.17;;;;;;;;;;8420980;28;20411;-84
2023/07/13 06:40:43;;;;;;;24.77;17.05;;;;;;;;;;8431930;28;20046;-83
2023/07/13 06:44:46;;;;;;;29.83;18.13;;;;;;;;;;8428630;28;20048;-90
2023/07/13 06:48:51;;;;;;;21.30;14.60;;;;;;;;;;8418336;28;20051;-90
2023/07/13 06:52:54;;;;;;;15.73;12.77;;;;;;;;;;8425235;28;20136;-83
2023/07/13 06:56:57;;;;;;;16.88;12.20;;;;;;;;;;8421423;28;20532;-93
2023/07/13 07:01:01;;;;;;;19.02;15.93;;;;;;;;;;8418711;28;20074;-94
2023/07/13 07:05:06;;;;;;;17.35;14.95;;;;;;;;;;8406403;28;20377;-94
2023/07/13 07:09:10;;;;;;;13.95;12.15;;;;;;;;;;8420986;28;20055;-92
2023/07/13 07:13:13;;;;;;;18.15;14.35;;;;;;;;;;8422973;28;20393;-94
2023/07/13 07:17:18;;;;;;;18.02;13.02;;;;;;;;;;8410583;28;20468;-95
2023/07/13 07:21:23;;;;;;;12.50;10.38;;;;;;;;;;8415659;28;20040;-95
2023/07/13 07:25:26;;;;;;;28.65;24.27;;;;;;;;;;8416093;28;20063;-94
2023/07/13 07:29:30;;;;;;;15.05;10.73;;;;;;;;;;8419209;28;20542;-94
2023/07/13 07:33:37;;;;;;;13.80;10.20;;;;;;;;;;8430126;28;20500;-95
2023/07/13 07:37:42;;;;;;;16.52;9.55;;;;;;;;;;8422232;28;20145;-94
2023/07/13 07:41:48;;;;;;;15.07;8.73;;;;;;;;;;8428509;28;20090;-88
2023/07/13 07:45:52;;;;;;;12.88;8.52;;;;;;;;;;8419739;28;20040;-92
2023/07/13 07:49:55;;;;;;;11.45;7.80;;;;;;;;;;8410956;28;20060;-84
2023/07/13 07:54:00;;;;;;;11.75;7.28;;;;;;;;;;8403358;28;20399;-89
2023/07/13 07:58:04;;;;;;;10.40;6.82;;;;;;;;;;8411214;28;20127;-83
2023/07/13 08:02:12;;;;;;;9.02;6.47;;;;;;;;;;8413279;28;20574;-90
2023/07/13 08:06:15;;;;;;;7.07;4.80;;;;;;;;;;8416157;28;20082;-89
2023/07/13 08:10:20;;;;;;;7.90;5.47;;;;;;;;;;8405741;28;20059;-86
2023/07/13 08:14:23;;;;;;;9.25;5.05;;;;;;;;;;8412031;28;20074;-92
2023/07/13 08:18:27;;;;;;;8.43;5.13;;;;;;;;;;8414923;28;20075;-90
2023/07/13 08:22:31;;;;;;;7.53;5.03;;;;;;;;;;8419847;28;20109;-94
2023/07/13 08:26:35;;;;;;;8.40;5.60;;;;;;;;;;8420507;28;20040;-92
2023/07/13 08:30:38;;;;;;;7.72;5.25;;;;;;;;;;8406333;28;20465;-90
2023/07/13 08:34:41;;;;;;;10.15;5.43;;;;;;;;;;8413376;28;20055;-86
2023/07/13 08:38:44;;;;;;;10.10;4.95;;;;;;;;;;8424180;28;20093;-92
2023/07/13 08:42:55;;;;;;;9.07;5.00;;;;;;;;;;8424038;28;20041;-89
2023/07/13 08:47:00;;;;;;;12.70;5.53;;;;;;;;;;8418552;28;20523;-89
2023/07/13 08:51:27;;;;;;;8.98;5.35;;;;;;;;;;8426523;28;20131;-91
2023/07/13 08:55:37;;;;;;;7.50;4.82;;;;;;;;;;8416987;28;20517;-93
2023/07/13 08:59:42;;;;;;;10.82;5.70;;;;;;;;;;8409643;28;20097;-85
2023/07/13 09:03:54;;;;;;;11.98;6.38;;;;;;;;;;8413268;28;20048;-86
2023/07/13 09:08:19;;;;;;;11.57;6.35;;;;;;;;;;8410331;28;20393;-86
2023/07/13 09:12:31;;;;;;;12.63;6.75;;;;;;;;;;8411597;28;20048;-84
2023/07/13 09:16:39;;;;;;;9.27;5.80;;;;;;;;;;8413196;28;20123;-95
2023/07/13 09:20:55;;;;;;;12.07;7.20;;;;;;;;;;8432324;28;20115;-94
2023/07/13 09:25:06;;;;;;;10.60;6.80;;;;;;;;;;8404963;28;20040;-85
2023/07/13 09:29:17;;;;;;;11.77;7.07;;;;;;;;;;8420327;28;20537;-88
2023/07/13 09:33:24;;;;;;;10.45;6.07;;;;;;;;;;8426211;28;20047;-89
2023/07/13 09:37:33;;;;;;;7.18;5.72;;;;;;;;;;8421356;28;20068;-84
2023/07/13 09:41:46;;;;;;;8.52;5.75;;;;;;;;;;8415090;28;20048;-90
2023/07/13 09:45:49;;;;;;;8.52;5.68;;;;;;;;;;8408813;28;20044;-87
2023/07/13 09:49:59;;;;;;;9.02;5.78;;;;;;;;;;8406483;28;20140;-88
2023/07/13 09:54:02;;;;;;;7.77;5.63;;;;;;;;;;8432601;28;20135;-91
2023/07/13 09:58:17;;;;;;;8.93;5.70;;;;;;;;;;8429686;28;20044;-96
2023/07/13 10:02:33;;;;;;;8.70;5.60;;;;;;;;;;8424464;28;20097;-96
2023/07/13 10:06:42;;;;;;;8.38;5.15;;;;;;;;;;8418009;28;20808;-85
2023/07/13 10:10:45;;;;;;;10.05;5.80;;;;;;;;;;8430950;28;20921;-86
2023/07/13 10:14:49;;;;;;;9.90;5.95;;;;;;;;;;8417549;28;20523;-89
2023/07/13 10:18:57;;;;;;;9.65;5.88;;;;;;;;;;8432846;28;20072;-83
2023/07/13 10:23:06;;;;;;;11.77;5.75;;;;;;;;;;8424544;28;20048;-84
2023/07/13 10:27:17;;;;;;;9.35;5.47;;;;;;;;;;8421492;28;20123;-83
2023/07/13 10:31:22;;;;;;;12.40;5.10;;;;;;;;;;8419688;28;20044;-84
2023/07/13 10:35:28;;;;;;;8.65;4.75;;;;;;;;;;8431722;28;20097;-83
2023/07/13 10:39:35;;;;;;;7.97;4.90;;;;;;;;;;8400639;28;20543;-92
2023/07/13 10:44:01;;;;;;;6.72;4.47;;;;;;;;;;8411407;28;20051;-83
2023/07/13 10:48:26;;;;;;;6.85;4.90;;;;;;;;;;8396748;28;20106;-83
2023/07/13 10:52:46;;;;;;;8.23;5.35;;;;;;;;;;8405521;28;20040;-88
2023/07/13 10:56:54;;;;;;;7.28;4.32;;;;;;;;;;8422276;28;20055;-87
2023/07/13 11:01:03;;;;;;;6.82;4.70;;;;;;;;;;8419490;28;20063;-91
2023/07/13 11:05:27;;;;;;;7.28;4.03;;;;;;;;;;8430769;28;20055;-94
2023/07/13 11:09:38;;;;;;;6.68;4.00;;;;;;;;;;8418234;28;20044;-82
2023/07/13 11:14:04;;;;;;;6.63;3.77;;;;;;;;;;8418754;28;20117;-86
2023/07/13 11:18:22;;;;;;;5.65;3.72;;;;;;;;;;8409372;28;21228;-87
2023/07/13 11:22:43;;;;;;;8.20;4.47;;;;;;;;;;8406158;28;20083;-84
2023/07/13 11:26:54;;;;;;;7.40;4.57;;;;;;;;;;8414788;28;20040;-90
2023/07/13 11:31:21;;;;;;;9.32;5.70;;;;;;;;;;8415739;28;20048;-88
2023/07/13 11:35:29;;;;;;;14.98;7.60;;;;;;;;;;8406754;28;20494;-84
2023/07/13 11:39:41;;;;;;;13.13;7.18;;;;;;;;;;8420480;28;20126;-81
2023/07/13 11:43:44;;;;;;;12.77;6.50;;;;;;;;;;8421533;28;20068;-91
2023/07/13 11:47:48;;;;;;;13.07;6.13;;;;;;;;;;8411618;28;20051;-92
2023/07/13 11:51:53;;;;;;;8.93;5.10;;;;;;;;;;8408736;28;20428;-91
2023/07/13 11:55:57;;;;;;;8.98;4.55;;;;;;;;;;8416728;28;20317;-84
2023/07/13 12:00:02;;;;;;;12.05;3.88;;;;;;;;;;8398584;28;20566;-86
2023/07/13 12:04:22;;;;;;;4.18;2.40;;;;;;;;;;8408622;28;20127;-86
2023/07/13 12:08:25;;;;;;;7.22;2.53;;;;;;;;;;8402356;28;20044;-87
2023/07/13 12:12:30;;;;;;;9.30;2.78;;;;;;;;;;8403233;28;20047;-86
2023/07/13 12:16:34;;;;;;;5.95;2.80;;;;;;;;;;8415533;28;20081;-85
2023/07/13 12:20:40;;;;;;;7.65;2.83;;;;;;;;;;8422190;28;20040;-93
2023/07/13 12:24:44;;;;;;;4.68;2.28;;;;;;;;;;8436598;28;20126;-86
2023/07/13 12:28:56;;;;;;;4.30;2.28;;;;;;;;;;8434762;28;20052;-91
2023/07/13 12:33:04;;;;;;;8.65;3.40;;;;;;;;;;8418501;28;20068;-91
2023/07/13 12:37:17;;;;;;;8.68;2.63;;;;;;;;;;8409479;28;20072;-89
2023/07/13 12:41:24;;;;;;;6.28;2.75;;;;;;;;;;8418881;28;20263;-94
2023/07/13 12:45:35;;;;;;;6.05;2.40;;;;;;;;;;8411259;28;20071;-89
2023/07/13 12:49:48;;;;;;;7.25;3.00;;;;;;;;;;8418449;28;20044;-88
2023/07/13 12:54:01;;;;;;;6.97;2.80;;;;;;;;;;8403668;28;20135;-89
2023/07/13 12:58:06;;;;;;;3.30;2.20;;;;;;;;;;8405728;28;20157;-89
2023/07/13 13:02:27;;;;;;;3.63;2.15;;;;;;;;;;8409781;28;20037;-86
2023/07/13 13:06:42;;;;;;;4.30;2.50;;;;;;;;;;8410895;28;20125;-86
2023/07/13 13:10:55;;;;;;;3.45;2.30;;;;;;;;;;8412394;28;20375;-85
2023/07/13 13:14:58;;;;;;;7.63;2.65;;;;;;;;;;8422173;28;20072;-82
2023/07/13 13:19:17;;;;;;;3.33;2.10;;;;;;;;;;8418246;28;20090;-84
2023/07/13 13:23:25;;;;;;;4.82;2.63;;;;;;;;;;8423321;28;20399;-84
2023/07/13 13:27:30;;;;;;;4.40;2.60;;;;;;;;;;8407407;28;20498;-84
2023/07/13 13:31:39;;;;;;;3.50;2.42;;;;;;;;;;8418082;28;20054;-86
2023/07/13 13:35:44;;;;;;;3.70;2.50;;;;;;;;;;8409587;28;20047;-87
2023/07/13 13:39:53;;;;;;;4.57;2.42;;;;;;;;;;8398096;28;20148;-88
2023/07/13 13:44:05;;;;;;;3.75;2.40;;;;;;;;;;8414974;28;20079;-86
2023/07/13 13:48:16;;;;;;;4.63;2.50;;;;;;;;;;8411068;28;20039;-83
2023/07/13 13:52:19;;;;;;;5.35;2.70;;;;;;;;;;8406175;28;20115;-84
2023/07/13 13:56:22;;;;;;;5.20;3.03;;;;;;;;;;8418804;28;20127;-85
2023/07/13 14:00:26;;;;;;;5.28;2.65;;;;;;;;;;8424183;28;20081;-83
2023/07/13 14:04:29;;;;;;;6.40;3.08;;;;;;;;;;8425806;28;20089;-82
2023/07/13 14:08:32;;;;;;;4.40;2.80;;;;;;;;;;8431324;28;20060;-82
2023/07/13 14:12:35;;;;;;;6.68;3.10;;;;;;;;;;8432378;28;20075;-92
2023/07/13 14:16:46;;;;;;;4.32;3.00;;;;;;;;;;8425301;28;20055;-87
2023/07/13 14:20:52;;;;;;;4.93;3.25;;;;;;;;;;8403957;28;20163;-92
2023/07/13 14:25:09;;;;;;;9.00;3.72;;;;;;;;;;8422117;28;20090;-84
2023/07/13 14:29:16;;;;;;;5.03;3.25;;;;;;;;;;8411418;28;20044;-83
2023/07/13 14:33:21;;;;;;;5.85;3.97;;;;;;;;;;8405417;28;20055;-85
2023/07/13 14:37:25;;;;;;;9.15;5.30;;;;;;;;;;8400255;28;20044;-87
2023/07/13 14:41:28;;;;;;;6.15;4.03;;;;;;;;;;8419274;28;20071;-89
2023/07/13 14:45:32;;;;;;;9.20;3.92;;;;;;;;;;8406391;28;20051;-83
2023/07/13 14:49:39;;;;;;;8.63;4.05;;;;;;;;;;8412894;28;20041;-88
2023/07/13 14:53:41;;;;;;;8.18;3.85;;;;;;;;;;8408558;28;20058;-85
2023/07/13 14:57:45;;;;;;;4.38;3.08;;;;;;;;;;8424207;28;20063;-82
2023/07/13 15:01:50;;;;;;;8.10;3.95;;;;;;;;;;8415250;28;20071;-86
2023/07/13 15:05:55;;;;;;;7.70;4.22;;;;;;;;;;8405080;28;20809;-88
2023/07/13 15:09:58;;;;;;;8.73;5.28;;;;;;;;;;8410038;28;20055;-88
2023/07/13 15:14:01;;;;;;;11.50;5.28;;;;;;;;;;8410191;28;20052;-82
2023/07/13 15:18:04;;;;;;;10.55;5.32;;;;;;;;;;8420464;28;20147;-87
2023/07/13 15:22:11;;;;;;;11.20;6.30;;;;;;;;;;8426253;28;20044;-89
2023/07/13 15:26:15;;;;;;;6.30;4.05;;;;;;;;;;8399861;28;20041;-82
2023/07/13 15:30:18;;;;;;;8.00;4.40;;;;;;;;;;8402255;28;20044;-85
2023/07/13 15:34:28;;;;;;;10.77;4.43;;;;;;;;;;8414267;28;20048;-85
2023/07/13 15:38:44;;;;;;;6.75;4.40;;;;;;;;;;8416079;28;20052;-83
2023/07/13 15:42:50;;;;;;;6.93;4.28;;;;;;;;;;8424501;28;20087;-89
2023/07/13 15:46:55;;;;;;;8.77;5.07;;;;;;;;;;8398980;28;20078;-82
2023/07/13 15:51:13;;;;;;;6.95;4.22;;;;;;;;;;8417176;28;20076;-88
2023/07/13 15:55:24;;;;;;;7.90;4.70;;;;;;;;;;8421793;28;20130;-84
2023/07/13 15:59:30;;;;;;;8.23;4.13;;;;;;;;;;8394888;28;20048;-84
2023/07/13 16:03:43;;;;;;;8.70;4.60;;;;;;;;;;8403672;28;20047;-85
2023/07/13 16:07:49;;;;;;;7.93;4.60;;;;;;;;;;8401257;28;20115;-85
2023/07/13 16:12:03;;;;;;;9.68;5.00;;;;;;;;;;8408034;28;20051;-87
2023/07/13 16:16:16;;;;;;;10.60;6.18;;;;;;;;;;8403522;28;20056;-86
2023/07/13 16:20:33;;;;;;;12.88;7.80;;;;;;;;;;8394628;28;20499;-89
2023/07/13 16:24:54;;;;;;;13.07;7.60;;;;;;;;;;8405925;28;20410;-84
2023/07/13 16:29:04;;;;;;;12.27;7.85;;;;;;;;;;8407311;28;20456;-84
2023/07/13 16:33:08;;;;;;;13.15;8.07;;;;;;;;;;8419103;28;20045;-90
2023/07/13 16:37:16;;;;;;;10.02;5.90;;;;;;;;;;8397435;28;20048;-82
2023/07/13 16:41:19;;;;;;;11.43;5.65;;;;;;;;;;8402209;28;20557;-85
2023/07/13 16:45:26;;;;;;;9.15;5.05;;;;;;;;;;8420828;28;20043;-85
2023/07/13 16:49:31;;;;;;;7.70;3.85;;;;;;;;;;8422720;28;20040;-83
2023/07/13 16:53:34;;;;;;;6.18;4.00;;;;;;;;;;8397070;28;20136;-90
2023/07/13 16:57:39;;;;;;;6.00;3.72;;;;;;;;;;8411018;28;20056;-87
2023/07/13 17:01:43;;;;;;;6.85;3.97;;;;;;;;;;8416358;28;20483;-87
2023/07/13 17:05:48;;;;;;;7.60;5.15;;;;;;;;;;8410731;28;20130;-88
2023/07/13 17:09:53;;;;;;;7.50;3.45;;;;;;;;;;8426604;28;20101;-85
2023/07/13 17:13:56;;;;;;;7.78;3.60;;;;;;;;;;8416741;28;20146;-90
2023/07/13 17:18:04;;;;;;;5.72;3.35;;;;;;;;;;8413775;28;20155;-91
2023/07/13 17:22:17;;;;;;;4.35;2.90;;;;;;;;;;8421782;28;20350;-81
2023/07/13 17:26:20;;;;;;;9.30;3.80;;;;;;;;;;8413561;28;20135;-88
2023/07/13 17:30:24;;;;;;;6.13;3.95;;;;;;;;;;8422724;28;20126;-82
2023/07/13 17:34:30;;;;;;;5.13;3.45;;;;;;;;;;8421789;28;20056;-91
2023/07/13 17:38:39;;;;;;;8.75;4.65;;;;;;;;;;8433320;28;20556;-89
2023/07/13 17:42:44;;;;;;;7.68;3.85;;;;;;;;;;8432608;28;20044;-91
2023/07/13 17:46:49;;;;;;;6.78;4.25;;;;;;;;;;8403972;28;20039;-82
2023/07/13 17:50:55;;;;;;;10.32;4.25;;;;;;;;;;8414307;28;20135;-83
2023/07/13 17:55:02;;;;;;;10.23;4.40;;;;;;;;;;8410782;28;20476;-88
2023/07/13 17:59:06;;;;;;;6.80;4.53;;;;;;;;;;8425418;28;20048;-82
2023/07/13 18:03:14;;;;;;;7.05;4.78;;;;;;;;;;8417086;28;20063;-83
2023/07/13 18:07:21;;;;;;;11.45;4.57;;;;;;;;;;8430391;28;20047;-89
2023/07/13 18:11:26;;;;;;;8.90;4.80;;;;;;;;;;8420090;28;20047;-84
2023/07/13 18:15:34;;;;;;;11.02;5.70;;;;;;;;;;8426968;28;20067;-87
2023/07/13 18:19:42;;;;;;;7.68;5.47;;;;;;;;;;8427314;28;20051;-84
2023/07/13 18:23:49;;;;;;;10.52;5.50;;;;;;;;;;8413564;28;20036;-83
2023/07/13 18:27:54;;;;;;;8.05;5.80;;;;;;;;;;8417689;28;20040;-83
2023/07/13 18:31:58;;;;;;;10.23;6.05;;;;;;;;;;8429723;28;20118;-84
2023/07/13 18:36:05;;;;;;;9.45;6.85;;;;;;;;;;8431124;28;20656;-88
2023/07/13 18:40:18;;;;;;;11.15;7.75;;;;;;;;;;8428034;28;20044;-91
2023/07/13 18:44:22;;;;;;;8.75;6.80;;;;;;;;;;8411946;28;20041;-86
2023/07/13 18:48:28;;;;;;;10.65;6.63;;;;;;;;;;8428834;28;20468;-82
2023/07/13 18:52:33;;;;;;;10.75;7.03;;;;;;;;;;8428585;28;20056;-88
2023/07/13 18:56:39;;;;;;;13.55;6.97;;;;;;;;;;8415458;28;20044;-83
2023/07/13 19:00:45;;;;;;;9.27;6.70;;;;;;;;;;8410466;28;20408;-92
2023/07/13 19:04:58;;;;;;;9.98;6.40;;;;;;;;;;8422547;28;20044;-83
2023/07/13 19:09:08;;;;;;;8.55;6.45;;;;;;;;;;8423124;28;20047;-88
2023/07/13 19:13:19;;;;;;;11.13;7.30;;;;;;;;;;8422774;28;20393;-82
2023/07/13 19:17:22;;;;;;;14.02;9.48;;;;;;;;;;8404579;28;20131;-93
2023/07/13 19:21:37;;;;;;;12.57;8.43;;;;;;;;;;8420231;28;20136;-92
2023/07/13 19:25:44;;;;;;;10.88;7.15;;;;;;;;;;8407212;28;20492;-93
2023/07/13 19:29:50;;;;;;;11.93;8.30;;;;;;;;;;8407782;28;20472;-84
2023/07/13 19:33:55;;;;;;;11.50;7.30;;;;;;;;;;8414644;28;20075;-87
2023/07/13 19:38:00;;;;;;;9.48;7.03;;;;;;;;;;8406488;28;20044;-86
2023/07/13 19:42:18;;;;;;;12.13;8.15;;;;;;;;;;8403466;28;20064;-86
2023/07/13 19:46:28;;;;;;;15.50;9.90;;;;;;;;;;8400324;28;20135;-91
2023/07/13 19:50:35;;;;;;;17.50;11.85;;;;;;;;;;8404560;28;20488;-90
2023/07/13 19:54:46;;;;;;;20.15;11.75;;;;;;;;;;8404467;28;20060;-83
2023/07/13 19:58:52;;;;;;;17.08;10.68;;;;;;;;;;8403461;28;20040;-82
2023/07/13 20:02:59;;;;;;;18.25;11.68;;;;;;;;;;8404054;28;20131;-91
2023/07/13 20:07:04;;;;;;;25.45;12.23;;;;;;;;;;8425429;28;20074;-92
2023/07/13 20:11:13;;;;;;;21.67;13.38;;;;;;;;;;8415708;28;20044;-84
2023/07/13 20:15:20;;;;;;;19.08;12.23;;;;;;;;;;8429349;28;20052;-81
2023/07/13 20:19:32;;;;;;;18.10;11.38;;;;;;;;;;8416687;28;20044;-85
2023/07/13 20:23:36;;;;;;;15.38;10.55;;;;;;;;;;8429327;28;20052;-87
2023/07/13 20:27:40;;;;;;;19.92;10.93;;;;;;;;;;8429448;28;20052;-85
2023/07/13 20:31:45;;;;;;;15.13;9.57;;;;;;;;;;8429293;28;20044;-82
2023/07/13 20:35:51;;;;;;;16.17;9.82;;;;;;;;;;8429756;28;20051;-91
2023/07/13 20:39:54;;;;;;;15.27;9.02;;;;;;;;;;8421441;28;20045;-82
2023/07/13 20:43:58;;;;;;;13.60;9.20;;;;;;;;;;8436173;28;20056;-83
2023/07/13 20:48:15;;;;;;;11.15;8.35;;;;;;;;;;8435584;28;20052;-84
2023/07/13 20:52:20;;;;;;;13.20;9.52;;;;;;;;;;8435305;28;20052;-90
2023/07/13 20:56:25;;;;;;;17.92;11.70;;;;;;;;;;8435637;28;20531;-83
2023/07/13 21:00:30;;;;;;;21.23;12.25;;;;;;;;;;8435626;28;20446;-82
2023/07/13 21:04:33;;;;;;;17.40;11.55;;;;;;;;;;8435109;28;20043;-90
2023/07/13 21:08:38;;;;;;;23.20;12.93;;;;;;;;;;8434914;28;20128;-84
2023/07/13 21:12:40;;;;;;;19.77;12.75;;;;;;;;;;8434667;28;20048;-84
2023/07/13 21:16:43;;;;;;;23.75;14.07;;;;;;;;;;8435033;28;20085;-92
2023/07/13 21:20:51;;;;;;;20.33;12.48;;;;;;;;;;8434316;28;20436;-86
2023/07/13 21:24:56;;;;;;;15.52;11.30;;;;;;;;;;8422697;28;20040;-87
2023/07/13 21:28:59;;;;;;;14.85;10.63;;;;;;;;;;8434308;28;20079;-91
2023/07/13 21:33:02;;;;;;;15.32;10.23;;;;;;;;;;8434426;28;20510;-84
2023/07/13 21:37:04;;;;;;;16.60;10.45;;;;;;;;;;8416627;28;20477;-82
2023/07/13 21:41:21;;;;;;;15.52;9.10;;;;;;;;;;8422046;28;20119;-85
2023/07/13 21:45:26;;;;;;;14.55;9.80;;;;;;;;;;8423650;28;20177;-86
2023/07/13 21:49:28;;;;;;;14.75;8.60;;;;;;;;;;8430153;28;20093;-92
2023/07/13 21:53:33;;;;;;;17.38;8.30;;;;;;;;;;8407455;28;20044;-92
2023/07/13 21:57:38;;;;;;;17.90;10.18;;;;;;;;;;8433403;28;20051;-84
2023/07/13 22:01:43;;;;;;;10.80;7.20;;;;;;;;;;8419917;28;20502;-92
2023/07/13 22:05:46;;;;;;;12.00;6.90;;;;;;;;;;8433538;28;20044;-83
2023/07/13 22:09:50;;;;;;;13.65;7.03;;;;;;;;;;8433233;28;20076;-87
2023/07/13 22:13:55;;;;;;;8.68;6.15;;;;;;;;;;8432985;28;20056;-92
2023/07/13 22:17:58;;;;;;;12.30;7.20;;;;;;;;;;8430917;28;20071;-83
2023/07/13 22:22:01;;;;;;;9.38;6.70;;;;;;;;;;8421427;28;20128;-90
2023/07/13 22:26:13;;;;;;;11.07;6.82;;;;;;;;;;8429807;28;20043;-82
2023/07/13 22:30:19;;;;;;;13.75;7.10;;;;;;;;;;8412767;28;20052;-83
2023/07/13 22:34:22;;;;;;;10.57;7.40;;;;;;;;;;8415994;28;20043;-91
2023/07/13 22:38:27;;;;;;;10.30;7.40;;;;;;;;;;8432759;28;20044;-89
2023/07/13 22:42:30;;;;;;;13.93;8.80;;;;;;;;;;8432397;28;20097;-92
2023/07/13 22:46:35;;;;;;;11.90;7.90;;;;;;;;;;8432004;28;20040;-93
2023/07/13 22:50:38;;;;;;;11.63;7.50;;;;;;;;;;8431808;28;20044;-91
2023/07/13 22:54:41;;;;;;;12.57;8.50;;;;;;;;;;8431680;28;20040;-91
2023/07/13 22:58:44;;;;;;;10.05;7.70;;;;;;;;;;8431776;28;20486;-92
2023/07/13 23:02:48;;;;;;;10.45;7.13;;;;;;;;;;8430828;28;20040;-89
2023/07/13 23:06:51;;;;;;;14.35;7.80;;;;;;;;;;8431467;28;20040;-87
2023/07/13 23:11:00;;;;;;;15.10;9.00;;;;;;;;;;8430918;28;20052;-93
2023/07/13 23:15:04;;;;;;;12.45;7.90;;;;;;;;;;8430958;28;20437;-83
2023/07/13 23:19:17;;;;;;;9.13;7.35;;;;;;;;;;8430910;28;20048;-93
2023/07/13 23:23:21;;;;;;;15.05;8.90;;;;;;;;;;8418221;28;20044;-82
2023/07/13 23:27:24;;;;;;;10.77;7.95;;;;;;;;;;8430738;28;20557;-87
2023/07/13 23:31:30;;;;;;;12.52;8.68;;;;;;;;;;8430930;28;20039;-91
2023/07/13 23:35:35;;;;;;;13.35;7.95;;;;;;;;;;8431007;28;20130;-83
2023/07/13 23:39:37;;;;;;;19.45;10.52;;;;;;;;;;8430788;28;20082;-92
2023/07/13 23:43:40;;;;;;;12.57;9.40;;;;;;;;;;8430242;28;20109;-87
2023/07/13 23:47:45;;;;;;;14.40;8.57;;;;;;;;;;8430697;28;20071;-90
2023/07/13 23:51:50;;;;;;;14.52;9.50;;;;;;;;;;8426076;28;20812;-82
2023/07/13 23:55:53;;;;;;;14.68;9.15;;;;;;;;;;8421881;28;20127;-92
2023/07/13 23:59:56;;;;;;;15.57;10.65;;;;;;;;;;8430110;28;20159;-82
